createdAt,value
2022-11-20T00:01:21.433Z,2.46
2022-11-20T00:03:49.369Z,2.50
2022-11-20T00:06:18.810Z,2.76
2022-11-20T00:08:47.194Z,2.48
2022-11-20T00:11:17.240Z,2.39
2022-11-20T00:13:45.602Z,2.35
2022-11-20T00:16:15.803Z,2.85
2022-11-20T00:18:43.643Z,2.66
2022-11-20T00:21:13.599Z,2.53
2022-11-20T00:23:42.454Z,2.66
2022-11-20T00:26:13.447Z,2.55
2022-11-20T00:28:41.656Z,2.58
2022-11-20T00:31:19.107Z,2.47
2022-11-20T00:33:47.460Z,2.59
2022-11-20T00:36:20.236Z,2.49
2022-11-20T00:38:48.498Z,2.69
2022-11-20T00:41:17.222Z,2.55
2022-11-20T00:43:44.706Z,2.76
2022-11-20T00:46:23.776Z,2.84
2022-11-20T00:48:51.519Z,2.45
2022-11-20T00:51:21.958Z,2.66
2022-11-20T00:53:49.612Z,2.76
2022-11-20T00:56:19.339Z,2.60
2022-11-20T00:58:48.883Z,2.60
2022-11-20T01:01:27.678Z,2.44
2022-11-20T01:03:58.193Z,2.53
2022-11-20T01:06:35.652Z,2.79
2022-11-20T01:09:08.777Z,2.55
2022-11-20T01:11:39.282Z,2.52
2022-11-20T01:14:10.258Z,2.72
2022-11-20T01:16:40.047Z,2.15
2022-11-20T01:19:17.311Z,2.39
2022-11-20T01:21:47.063Z,2.42
2022-11-20T01:24:16.989Z,2.49
2022-11-20T01:26:45.710Z,2.43
2022-11-20T01:29:22.385Z,2.80
2022-11-20T01:31:50.894Z,2.73
2022-11-20T01:34:20.349Z,2.65
2022-11-20T01:36:49.337Z,2.80
2022-11-20T01:39:23.239Z,2.78
2022-11-20T01:42:11.139Z,2.71
2022-11-20T01:44:50.140Z,2.80
2022-11-20T01:47:36.194Z,3.06
2022-11-20T01:50:17.390Z,2.83
2022-11-20T01:53:00.553Z,3.01
2022-11-20T01:55:33.192Z,2.79
2022-11-20T01:58:02.315Z,2.77
2022-11-20T02:00:29.995Z,2.90
2022-11-20T02:03:08.622Z,2.87
2022-11-20T02:05:47.553Z,3.07
2022-11-20T02:08:15.499Z,3.07
2022-11-20T02:10:42.981Z,3.06
2022-11-20T02:13:29.050Z,2.89
2022-11-20T02:15:56.685Z,2.99
2022-11-20T02:18:25.332Z,2.92
2022-11-20T02:21:07.434Z,2.81
2022-11-20T02:23:44.588Z,2.84
2022-11-20T02:26:17.081Z,3.25
2022-11-20T02:28:44.661Z,2.91
2022-11-20T02:31:12.196Z,3.18
2022-11-20T02:33:39.726Z,3.17
2022-11-20T02:36:12.568Z,3.33
2022-11-20T02:38:40.156Z,3.16
2022-11-20T02:41:07.678Z,2.89
2022-11-20T02:43:35.287Z,3.26
2022-11-20T02:46:02.875Z,3.23
2022-11-20T02:48:33.798Z,3.22
2022-11-20T02:51:01.983Z,3.15
2022-11-20T02:53:29.585Z,2.85
2022-11-20T02:55:57.051Z,2.81
2022-11-20T02:58:25.267Z,3.03
2022-11-20T03:00:53.501Z,3.10
2022-11-20T03:03:21.242Z,3.32
2022-11-20T03:05:48.708Z,3.28
2022-11-20T03:08:16.259Z,3.36
2022-11-20T03:10:44.043Z,3.26
2022-11-20T03:13:11.562Z,3.44
2022-11-20T03:15:39.011Z,3.54
2022-11-20T03:18:06.893Z,3.55
2022-11-20T03:20:34.943Z,3.60
2022-11-20T03:23:02.533Z,3.49
2022-11-20T03:25:30.073Z,3.30
2022-11-20T03:27:57.576Z,3.22
2022-11-20T03:30:29.162Z,3.28
2022-11-20T03:32:58.038Z,3.50
2022-11-20T03:35:25.606Z,3.38
2022-11-20T03:37:53.114Z,3.59
2022-11-20T03:40:20.650Z,3.60
2022-11-20T03:42:48.258Z,3.50
2022-11-20T03:45:19.353Z,3.53
2022-11-20T03:47:47.185Z,3.45
2022-11-20T03:50:15.195Z,3.19
2022-11-20T03:52:43.095Z,3.15
2022-11-20T03:55:10.741Z,3.00
2022-11-20T03:57:38.356Z,3.03
2022-11-20T04:00:07.745Z,3.23
2022-11-20T04:02:35.316Z,3.62
2022-11-20T04:05:02.838Z,2.90
2022-11-20T04:07:30.944Z,3.56
2022-11-20T04:09:58.562Z,3.61
2022-11-20T04:12:26.091Z,3.85
2022-11-20T04:14:53.669Z,3.61
2022-11-20T04:17:21.190Z,3.26
2022-11-20T04:19:49.321Z,3.60
2022-11-20T04:22:16.745Z,3.49
2022-11-20T04:24:44.227Z,3.52
2022-11-20T04:27:12.027Z,3.73
2022-11-20T04:29:39.555Z,3.62
2022-11-20T04:32:07.192Z,3.77
2022-11-20T04:34:34.721Z,3.72
2022-11-20T04:37:02.335Z,4.04
2022-11-20T04:39:29.853Z,3.96
2022-11-20T04:42:15.919Z,3.61
2022-11-20T04:44:43.426Z,3.81
2022-11-20T04:47:10.960Z,3.86
2022-11-20T04:49:38.525Z,3.99
2022-11-20T04:52:06.009Z,4.28
2022-11-20T04:54:33.424Z,3.52
2022-11-20T04:57:00.935Z,3.82
2022-11-20T04:59:28.419Z,4.14
2022-11-20T05:01:56.392Z,4.03
2022-11-20T05:04:24.185Z,4.30
2022-11-20T05:06:51.821Z,4.21
2022-11-20T05:09:19.537Z,4.47
2022-11-20T05:11:51.226Z,4.38
2022-11-20T05:14:19.070Z,4.41
2022-11-20T05:16:46.669Z,4.18
2022-11-20T05:19:14.179Z,3.84
2022-11-20T05:21:41.754Z,3.57
2022-11-20T05:24:09.248Z,4.06
2022-11-20T05:26:36.933Z,4.24
2022-11-20T05:29:05.080Z,4.05
2022-11-20T05:31:32.763Z,3.98
2022-11-20T05:34:00.232Z,4.02
2022-11-20T05:36:27.721Z,4.18
2022-11-20T05:39:00.934Z,4.31
2022-11-20T05:41:28.754Z,3.72
2022-11-20T05:43:57.193Z,3.94
2022-11-20T05:46:28.173Z,4.08
2022-11-20T05:48:58.355Z,4.36
2022-11-20T05:51:26.803Z,4.31
2022-11-20T05:53:54.536Z,4.33
2022-11-20T05:56:22.964Z,4.35
2022-11-20T05:58:51.072Z,4.32
2022-11-20T06:01:25.190Z,4.32
2022-11-20T06:03:54.630Z,4.10
2022-11-20T06:06:22.442Z,4.04
2022-11-20T06:08:50.539Z,4.17
2022-11-20T06:11:18.567Z,4.10
2022-11-20T06:13:46.799Z,4.15
2022-11-20T06:16:17.594Z,3.96
2022-11-20T06:18:46.349Z,3.85
2022-11-20T06:21:25.040Z,4.35
2022-11-20T06:23:53.819Z,4.37
2022-11-20T06:26:25.130Z,4.28
2022-11-20T06:28:53.576Z,4.22
2022-11-20T06:31:25.030Z,3.87
2022-11-20T06:33:52.907Z,4.26
2022-11-20T06:36:22.764Z,4.08
2022-11-20T06:38:50.455Z,4.14
2022-11-20T06:41:21.253Z,4.44
2022-11-20T06:43:49.723Z,4.34
2022-11-20T06:46:18.911Z,4.74
2022-11-20T06:48:47.454Z,4.86
2022-11-20T06:51:15.275Z,4.95
2022-11-20T06:53:42.878Z,4.97
2022-11-20T06:56:10.588Z,4.82
2022-11-20T06:58:38.842Z,4.80
2022-11-20T07:01:15.137Z,4.55
2022-11-20T07:03:43.598Z,4.75
2022-11-20T07:06:11.136Z,4.57
2022-11-20T07:08:38.621Z,4.81
2022-11-20T07:11:08.282Z,4.63
2022-11-20T07:13:35.861Z,4.68
2022-11-20T07:16:06.736Z,4.23
2022-11-20T07:18:35.177Z,4.54
2022-11-20T07:21:04.332Z,4.61
2022-11-20T07:23:32.342Z,4.50
2022-11-20T07:26:12.637Z,4.95
2022-11-20T07:28:40.259Z,4.84
2022-11-20T07:31:08.496Z,4.62
2022-11-20T07:33:36.191Z,4.88
2022-11-20T07:36:04.335Z,4.86
2022-11-20T07:38:32.052Z,5.21
2022-11-20T07:41:02.416Z,5.31
2022-11-20T07:43:30.410Z,5.54
2022-11-20T07:45:59.656Z,5.60
2022-11-20T07:48:27.454Z,5.96
2022-11-20T07:50:56.300Z,5.78
2022-11-20T07:53:24.730Z,5.66
2022-11-20T07:55:55.036Z,5.89
2022-11-20T07:58:22.949Z,5.31
2022-11-20T08:00:50.619Z,5.00
2022-11-20T08:03:24.386Z,5.40
2022-11-20T08:05:52.631Z,5.78
2022-11-20T08:08:20.854Z,5.63
2022-11-20T08:10:48.416Z,5.90
2022-11-20T08:13:34.593Z,5.94
2022-11-20T08:16:02.224Z,6.09
2022-11-20T08:18:31.794Z,6.24
2022-11-20T08:21:04.615Z,5.86
2022-11-20T08:23:32.425Z,6.32
2022-11-20T08:25:59.925Z,6.51
2022-11-20T08:28:27.543Z,6.33
2022-11-20T08:31:00.382Z,6.23
2022-11-20T08:33:28.329Z,6.56
2022-11-20T08:36:00.354Z,6.58
2022-11-20T08:38:27.848Z,6.34
2022-11-20T08:41:21.948Z,6.73
2022-11-20T08:43:50.342Z,7.13
2022-11-20T08:46:18.337Z,6.60
2022-11-20T08:48:46.298Z,6.77
2022-11-20T08:51:14.654Z,6.74
2022-11-20T08:53:42.884Z,7.27
2022-11-20T08:56:11.098Z,7.62
2022-11-20T08:59:09.941Z,7.49
2022-11-20T09:01:28.253Z,6.99
2022-11-20T09:03:57.929Z,7.43
2022-11-20T09:06:25.479Z,7.30
2022-11-20T09:08:54.282Z,7.01
2022-11-20T09:11:22.992Z,7.19
2022-11-20T09:13:50.755Z,7.65
2022-11-20T09:16:18.309Z,7.60
2022-11-20T09:18:45.861Z,7.37
2022-11-20T09:21:15.035Z,6.67
2022-11-20T09:23:42.630Z,6.58
2022-11-20T09:26:13.089Z,6.15
2022-11-20T09:28:41.227Z,6.78
2022-11-20T09:31:20.716Z,7.13
2022-11-20T09:33:48.238Z,7.06
2022-11-20T09:36:16.951Z,7.50
2022-11-20T09:38:44.854Z,7.38
2022-11-20T09:41:37.774Z,7.84
2022-11-20T09:44:26.801Z,7.83
2022-11-20T09:47:12.201Z,7.71
2022-11-20T09:49:55.049Z,7.51
2022-11-20T09:52:22.677Z,7.06
2022-11-20T09:54:51.566Z,7.93
2022-11-20T09:57:24.405Z,7.74
2022-11-20T10:00:00.374Z,7.57
2022-11-20T10:02:41.259Z,8.01
2022-11-20T10:05:11.975Z,8.72
2022-11-20T10:08:01.120Z,8.71
2022-11-20T10:10:43.812Z,9.27
2022-11-20T10:13:53.992Z,9.51
2022-11-20T10:16:37.989Z,10.01
2022-11-20T10:19:22.838Z,9.17
2022-11-20T10:21:56.334Z,10.02
2022-11-20T10:24:42.650Z,10.23
2022-11-20T10:27:44.123Z,11.42
2022-11-20T10:30:17.492Z,12.13
2022-11-20T10:32:53.110Z,13.86
2022-11-20T10:35:27.433Z,15.55
2022-11-20T10:38:01.726Z,14.93
2022-11-20T10:40:39.342Z,16.31
2022-11-20T10:43:13.367Z,15.67
2022-11-20T10:45:59.480Z,17.11
2022-11-20T10:48:29.366Z,15.94
2022-11-20T10:51:21.344Z,16.75
2022-11-20T10:54:10.333Z,16.47
2022-11-20T10:56:54.710Z,16.33
2022-11-20T10:59:27.864Z,16.04
2022-11-20T11:01:55.383Z,15.27
2022-11-20T11:04:41.751Z,14.61
2022-11-20T11:07:18.824Z,14.17
2022-11-20T11:09:55.129Z,13.00
2022-11-20T11:12:26.926Z,12.62
2022-11-20T11:14:57.110Z,13.25
2022-11-20T11:17:32.766Z,12.60
2022-11-20T11:20:22.723Z,12.29
2022-11-20T11:22:53.614Z,12.32
2022-11-20T11:25:23.997Z,12.41
2022-11-20T11:27:53.440Z,12.58
2022-11-20T11:30:21.930Z,11.78
2022-11-20T11:32:49.849Z,12.01
2022-11-20T11:35:26.623Z,11.64
2022-11-20T11:38:03.119Z,10.99
2022-11-20T11:40:34.098Z,10.85
2022-11-20T11:43:06.398Z,10.80
2022-11-20T11:45:33.958Z,10.85
2022-11-20T11:48:04.276Z,10.68
2022-11-20T11:50:32.762Z,9.95
2022-11-20T11:53:06.029Z,12.15
2022-11-20T11:55:58.437Z,10.77
2022-11-20T11:58:49.291Z,10.17
2022-11-20T12:01:35.470Z,10.80
2022-11-20T12:04:12.034Z,10.21
2022-11-20T12:06:45.130Z,9.94
2022-11-20T12:09:13.484Z,9.94
2022-11-20T12:12:06.108Z,10.24
2022-11-20T12:14:33.577Z,10.32
2022-11-20T12:17:02.913Z,9.79
2022-11-20T12:19:34.518Z,9.26
2022-11-20T12:22:18.415Z,9.53
2022-11-20T12:25:10.923Z,9.15
2022-11-20T12:27:46.235Z,9.27
2022-11-20T12:30:15.628Z,9.38
2022-11-20T12:33:20.099Z,9.07
2022-11-20T12:36:00.182Z,8.73
2022-11-20T12:38:46.707Z,8.80
2022-11-20T12:41:54.625Z,9.00
2022-11-20T12:44:55.883Z,9.15
2022-11-20T12:47:37.308Z,8.98
2022-11-20T12:50:29.277Z,8.72
2022-11-20T12:53:17.260Z,9.10
2022-11-20T12:55:56.589Z,9.31
2022-11-20T12:58:38.676Z,9.40
2022-11-20T13:01:43.448Z,9.53
2022-11-20T13:04:17.087Z,8.74
2022-11-20T13:06:45.640Z,9.11
2022-11-20T13:09:18.338Z,9.13
2022-11-20T13:12:04.178Z,9.82
2022-11-20T13:14:41.492Z,8.91
2022-11-20T13:17:23.658Z,8.54
2022-11-20T13:19:55.021Z,9.17
2022-11-20T13:22:31.099Z,9.37
2022-11-20T13:24:58.726Z,9.27
2022-11-20T13:27:26.310Z,9.25
2022-11-20T13:30:15.834Z,8.86
2022-11-20T13:33:24.075Z,8.43
2022-11-20T13:35:59.413Z,8.56
2022-11-20T13:38:30.023Z,9.02
2022-11-20T13:41:25.498Z,8.88
2022-11-20T13:43:53.786Z,8.97
2022-11-20T13:46:25.493Z,8.79
2022-11-20T13:48:55.309Z,9.12
2022-11-20T13:51:23.270Z,8.87
2022-11-20T13:54:41.550Z,8.58
2022-11-20T13:57:35.176Z,8.53
2022-11-20T14:00:21.094Z,8.74
2022-11-20T14:03:06.821Z,8.62
2022-11-20T14:05:39.771Z,8.39
2022-11-20T14:08:14.965Z,8.66
2022-11-20T14:10:42.661Z,8.32
2022-11-20T14:13:21.538Z,8.32
2022-11-20T14:15:57.972Z,8.51
2022-11-20T14:18:27.467Z,8.55
2022-11-20T14:20:55.362Z,8.24
2022-11-20T14:23:30.574Z,8.70
2022-11-20T14:25:58.320Z,8.64
2022-11-20T14:28:28.661Z,8.51
2022-11-20T14:30:57.733Z,8.16
2022-11-20T14:33:27.888Z,7.91
2022-11-20T14:35:58.501Z,7.92
2022-11-20T14:38:30.294Z,7.94
2022-11-20T14:41:18.854Z,7.76
2022-11-20T14:43:57.888Z,7.62
2022-11-20T14:46:25.980Z,7.48
2022-11-20T14:48:57.430Z,7.31
2022-11-20T14:51:32.713Z,6.90
2022-11-20T14:54:31.003Z,7.30
2022-11-20T14:57:01.147Z,7.34
2022-11-20T14:59:32.532Z,7.11
2022-11-20T15:02:07.348Z,7.27
2022-11-20T15:04:49.280Z,7.12
2022-11-20T15:07:41.147Z,6.48
2022-11-20T15:10:12.907Z,6.54
2022-11-20T15:12:52.228Z,6.48
2022-11-20T15:15:42.840Z,6.56
2022-11-20T15:18:42.595Z,6.02
2022-11-20T15:21:19.100Z,6.21
2022-11-20T15:23:46.812Z,6.06
2022-11-20T15:26:20.182Z,5.97
2022-11-20T15:28:50.962Z,5.86
2022-11-20T15:31:22.315Z,5.74
2022-11-20T15:33:50.648Z,5.71
2022-11-20T15:36:18.842Z,5.53
2022-11-20T15:38:46.668Z,5.45
2022-11-20T15:41:14.386Z,5.51
2022-11-20T15:43:41.992Z,5.51
2022-11-20T15:46:15.685Z,5.46
2022-11-20T15:48:48.213Z,5.34
2022-11-20T15:51:27.942Z,5.32
2022-11-20T15:53:56.892Z,5.58
2022-11-20T15:56:25.114Z,5.47
2022-11-20T15:58:53.180Z,5.54
2022-11-20T16:01:23.060Z,5.44
2022-11-20T16:03:51.000Z,5.47
2022-11-20T16:06:18.786Z,5.46
2022-11-20T16:08:47.046Z,5.31
2022-11-20T16:11:16.415Z,5.28
2022-11-20T16:14:05.216Z,5.27
2022-11-20T16:16:38.679Z,5.37
2022-11-20T16:19:06.486Z,5.09
2022-11-20T16:21:35.770Z,5.67
2022-11-20T16:24:06.789Z,5.58
2022-11-20T16:26:36.649Z,5.88
2022-11-20T16:29:07.524Z,6.12
2022-11-20T16:31:35.418Z,6.22
2022-11-20T16:34:11.511Z,6.35
2022-11-20T16:36:41.335Z,6.43
2022-11-20T16:39:09.022Z,6.43
2022-11-20T16:41:37.854Z,6.19
2022-11-20T16:44:10.802Z,6.14
2022-11-20T16:46:40.684Z,5.78
2022-11-20T16:49:13.906Z,6.01
2022-11-20T16:51:43.655Z,5.82
2022-11-20T16:54:15.020Z,5.91
2022-11-20T16:56:47.992Z,5.57
2022-11-20T16:59:15.861Z,5.57
2022-11-20T17:01:44.095Z,5.27
2022-11-20T17:04:12.145Z,5.31
2022-11-20T17:06:44.254Z,5.27
2022-11-20T17:09:13.804Z,5.20
2022-11-20T17:11:41.532Z,4.92
2022-11-20T17:14:11.896Z,4.57
2022-11-20T17:16:39.962Z,4.50
2022-11-20T17:19:08.305Z,4.63
2022-11-20T17:21:36.593Z,4.72
2022-11-20T17:24:09.169Z,4.67
2022-11-20T17:26:39.026Z,4.81
2022-11-20T17:29:15.543Z,4.54
2022-11-20T17:31:44.191Z,4.53
2022-11-20T17:34:14.375Z,4.01
2022-11-20T17:36:45.743Z,4.16
2022-11-20T17:39:15.226Z,4.01
2022-11-20T17:41:43.289Z,4.09
2022-11-20T17:44:12.870Z,4.36
2022-11-20T17:46:41.115Z,4.41
2022-11-20T17:49:08.916Z,4.57
2022-11-20T17:51:36.611Z,4.59
2022-11-20T17:54:07.478Z,4.43
2022-11-20T17:56:54.734Z,4.30
2022-11-20T17:59:22.626Z,4.32
2022-11-20T18:01:50.199Z,4.49
2022-11-20T18:04:18.100Z,4.48
2022-11-20T18:06:45.700Z,4.50
2022-11-20T18:09:13.399Z,4.39
2022-11-20T18:11:42.580Z,4.35
2022-11-20T18:14:37.351Z,4.47
2022-11-20T18:17:08.242Z,4.56
2022-11-20T18:19:42.592Z,4.38
2022-11-20T18:22:20.109Z,4.13
2022-11-20T18:24:47.888Z,4.09
2022-11-20T18:27:19.328Z,4.15
2022-11-20T18:29:52.346Z,4.18
2022-11-20T18:32:21.816Z,4.13
2022-11-20T18:34:50.254Z,4.28
2022-11-20T18:37:18.202Z,4.32
2022-11-20T18:39:46.042Z,4.39
2022-11-20T18:42:34.192Z,4.62
2022-11-20T18:45:04.529Z,4.63
2022-11-20T18:47:37.992Z,4.63
2022-11-20T18:50:07.969Z,4.37
2022-11-20T18:52:41.841Z,4.34
2022-11-20T18:55:10.135Z,4.18
2022-11-20T18:57:38.140Z,3.79
2022-11-20T19:00:09.558Z,3.60
2022-11-20T19:02:42.515Z,3.21
2022-11-20T19:05:12.954Z,3.01
2022-11-20T19:07:41.317Z,2.80
2022-11-20T19:10:09.989Z,2.81
2022-11-20T19:12:37.707Z,2.62
2022-11-20T19:15:06.222Z,2.59
2022-11-20T19:17:34.344Z,2.60
2022-11-20T19:20:02.479Z,2.49
2022-11-20T19:22:30.332Z,2.30
2022-11-20T19:25:00.919Z,2.47
2022-11-20T19:27:28.763Z,2.66
2022-11-20T19:30:03.095Z,2.64
2022-11-20T19:32:32.695Z,2.27
2022-11-20T19:35:00.724Z,2.35
2022-11-20T19:37:28.516Z,2.22
2022-11-20T19:39:59.536Z,1.94
2022-11-20T19:42:27.325Z,1.93
2022-11-20T19:44:55.123Z,1.74
2022-11-20T19:47:23.040Z,1.58
2022-11-20T19:49:52.721Z,1.66
2022-11-20T19:52:20.779Z,1.59
2022-11-20T19:54:48.539Z,1.45
2022-11-20T19:57:17.229Z,1.39
2022-11-20T19:59:45.047Z,1.35
2022-11-20T20:02:13.392Z,1.62
2022-11-20T20:04:41.146Z,1.55
2022-11-20T20:07:08.929Z,1.52
2022-11-20T20:09:36.735Z,1.58
2022-11-20T20:12:04.933Z,1.54
2022-11-20T20:14:32.810Z,1.58
2022-11-20T20:17:00.917Z,1.54
2022-11-20T20:19:28.730Z,1.47
2022-11-20T20:21:56.489Z,1.38
2022-11-20T20:24:24.238Z,1.47
2022-11-20T20:26:56.845Z,1.70
2022-11-20T20:29:26.891Z,1.75
2022-11-20T20:31:54.343Z,1.65
2022-11-20T20:34:23.432Z,1.47
2022-11-20T20:36:51.234Z,1.43
2022-11-20T20:39:19.757Z,1.61
2022-11-20T20:41:47.543Z,1.46
2022-11-20T20:44:34.567Z,1.24
2022-11-20T20:47:02.300Z,1.31
2022-11-20T20:49:30.066Z,1.28
2022-11-20T20:51:57.934Z,1.27
2022-11-20T20:54:29.242Z,1.17
2022-11-20T20:56:59.293Z,1.25
2022-11-20T20:59:27.073Z,1.20
2022-11-20T21:01:54.855Z,1.10
2022-11-20T21:04:22.968Z,1.30
2022-11-20T21:06:50.708Z,1.23
2022-11-20T21:09:20.310Z,1.39
2022-11-20T21:11:48.151Z,1.33
2022-11-20T21:14:15.740Z,1.30
2022-11-20T21:16:44.050Z,1.45
2022-11-20T21:19:11.708Z,1.36
2022-11-20T21:21:57.455Z,1.16
2022-11-20T21:24:33.406Z,1.20
2022-11-20T21:27:03.182Z,0.77
2022-11-20T21:29:31.034Z,0.80
2022-11-20T21:31:58.850Z,0.72
2022-11-20T21:34:26.831Z,0.77
2022-11-20T21:36:54.635Z,0.76
2022-11-20T21:39:22.301Z,0.77
2022-11-20T21:41:49.842Z,0.90
2022-11-20T21:44:31.046Z,0.98
2022-11-20T21:46:59.299Z,0.80
2022-11-20T21:49:26.992Z,0.72
2022-11-20T21:51:54.525Z,0.63
2022-11-20T21:54:22.305Z,0.66
2022-11-20T21:56:51.004Z,0.60
2022-11-20T21:59:18.587Z,0.43
2022-11-20T22:01:46.161Z,0.27
2022-11-20T22:04:15.405Z,0.37
2022-11-20T22:06:42.927Z,0.57
2022-11-20T22:09:11.098Z,-0.03
2022-11-20T22:11:38.625Z,-0.07
2022-11-20T22:14:21.476Z,0.37
2022-11-20T22:16:50.730Z,0.40
2022-11-20T22:19:20.571Z,0.52
2022-11-20T22:21:48.546Z,0.46
2022-11-20T22:24:20.698Z,0.36
2022-11-20T22:26:48.791Z,0.34
2022-11-20T22:29:21.195Z,0.53
2022-11-20T22:31:51.736Z,0.54
2022-11-20T22:34:19.229Z,0.59
2022-11-20T22:36:46.739Z,0.58
2022-11-20T22:39:14.337Z,0.51
2022-11-20T22:41:41.860Z,0.67
2022-11-20T22:44:13.724Z,0.39
2022-11-20T22:46:41.201Z,0.63
2022-11-20T22:49:09.220Z,0.66
2022-11-20T22:51:39.648Z,0.26
2022-11-20T22:54:07.960Z,-0.15
2022-11-20T22:56:35.448Z,0.20
2022-11-20T22:59:04.754Z,0.40
2022-11-20T23:01:34.550Z,0.33
2022-11-20T23:04:04.909Z,0.32
2022-11-20T23:06:35.735Z,0.39
2022-11-20T23:09:05.836Z,0.41
2022-11-20T23:11:33.513Z,0.41
2022-11-20T23:14:04.449Z,0.47
2022-11-20T23:16:33.948Z,0.48
2022-11-20T23:19:07.922Z,0.45
2022-11-20T23:21:37.272Z,0.34
2022-11-20T23:24:05.341Z,0.10
2022-11-20T23:26:35.739Z,0.01
2022-11-20T23:29:04.919Z,-0.01
2022-11-20T23:31:34.354Z,0.07
2022-11-20T23:34:02.032Z,0.07
2022-11-20T23:36:29.728Z,0.06
2022-11-20T23:38:57.283Z,-0.08
2022-11-20T23:41:24.927Z,0.12
2022-11-20T23:43:53.388Z,0.20
2022-11-20T23:46:21.190Z,0.15
2022-11-20T23:48:48.719Z,0.01
2022-11-20T23:51:16.694Z,0.03
2022-11-20T23:53:44.301Z,0.09
2022-11-20T23:56:14.639Z,0.12
2022-11-20T23:58:42.978Z,0.06
